createdAt,value
2022-11-22T00:02:01.666Z,95987.91
2022-11-22T00:04:33.425Z,95990.53
2022-11-22T00:07:03.247Z,95986.88
2022-11-22T00:09:34.172Z,95983.28
2022-11-22T00:12:04.451Z,95988.47
2022-11-22T00:14:33.420Z,95984.28
2022-11-22T00:17:02.565Z,95989.28
2022-11-22T00:19:33.490Z,95992.69
2022-11-22T00:22:03.058Z,95977.88
2022-11-22T00:24:32.481Z,95990.63
2022-11-22T00:27:01.338Z,95988.03
2022-11-22T00:29:30.617Z,95987.03
2022-11-22T00:31:59.814Z,95993.03
2022-11-22T00:34:29.170Z,95991.09
2022-11-22T00:36:59.106Z,96004.66
2022-11-22T00:39:29.089Z,95997.44
2022-11-22T00:41:59.106Z,95993.03
2022-11-22T00:44:28.367Z,95995.63
2022-11-22T00:46:58.585Z,96006.03
2022-11-22T00:49:28.007Z,95999.03
2022-11-22T00:52:01.087Z,95997.44
2022-11-22T00:54:29.878Z,96000.84
2022-11-22T00:56:59.780Z,96009.63
2022-11-22T00:59:29.106Z,96011.44
2022-11-22T01:01:59.477Z,96018.25
2022-11-22T01:04:28.555Z,96021.41
2022-11-22T01:06:59.288Z,96019.84
2022-11-22T01:09:28.817Z,96023.44
2022-11-22T01:11:58.405Z,96035.66
2022-11-22T01:14:27.685Z,96029.44
2022-11-22T01:16:56.863Z,96044.81
2022-11-22T01:19:25.886Z,96043.00
2022-11-22T01:21:55.372Z,96051.59
2022-11-22T01:24:25.995Z,96048.00
2022-11-22T01:26:55.644Z,96054.78
2022-11-22T01:29:26.302Z,96061.81
2022-11-22T01:31:55.828Z,96071.41
2022-11-22T01:34:27.390Z,96074.00
2022-11-22T01:36:58.017Z,96067.00
2022-11-22T01:39:28.748Z,96067.78
2022-11-22T01:41:57.957Z,96071.19
2022-11-22T01:44:31.137Z,96075.56
2022-11-22T01:47:06.280Z,96073.56
2022-11-22T01:49:43.780Z,96069.38
2022-11-22T01:52:19.518Z,96074.56
2022-11-22T01:54:57.180Z,96072.97
2022-11-22T01:57:32.057Z,96077.19
2022-11-22T02:00:06.407Z,96076.38
2022-11-22T02:02:36.367Z,96083.38
2022-11-22T02:05:09.928Z,96084.63
2022-11-22T02:07:50.754Z,96081.22
2022-11-22T02:10:26.369Z,96084.41
2022-11-22T02:12:58.666Z,96080.66
2022-11-22T02:15:28.246Z,96075.66
2022-11-22T02:17:59.402Z,96076.88
2022-11-22T02:20:29.635Z,96086.28
2022-11-22T02:23:11.618Z,96100.28
2022-11-22T02:25:53.320Z,96098.69
2022-11-22T02:28:23.032Z,96097.31
2022-11-22T02:30:52.541Z,96091.56
2022-11-22T02:33:22.935Z,96106.34
2022-11-22T02:35:53.483Z,96105.56
2022-11-22T02:38:27.612Z,96115.94
2022-11-22T02:41:04.505Z,96117.56
2022-11-22T02:43:39.151Z,96115.72
2022-11-22T02:46:11.704Z,96125.56
2022-11-22T02:48:43.793Z,96133.34
2022-11-22T02:51:16.956Z,96130.75
2022-11-22T02:53:47.515Z,96144.19
2022-11-22T02:56:19.167Z,96134.59
2022-11-22T02:58:48.713Z,96144.19
2022-11-22T03:01:17.798Z,96142.00
2022-11-22T03:03:47.702Z,96132.03
2022-11-22T03:06:16.849Z,96136.28
2022-11-22T03:08:53.189Z,96141.84
2022-11-22T03:11:26.729Z,96147.66
2022-11-22T03:13:56.539Z,96148.44
2022-11-22T03:16:27.206Z,96146.84
2022-11-22T03:18:57.216Z,96145.59
2022-11-22T03:21:26.550Z,96154.41
2022-11-22T03:23:56.745Z,96160.63
2022-11-22T03:26:29.832Z,96161.63
2022-11-22T03:28:59.518Z,96159.03
2022-11-22T03:31:30.003Z,96157.66
2022-11-22T03:33:59.475Z,96163.06
2022-11-22T03:36:29.565Z,96169.06
2022-11-22T03:39:00.560Z,96176.88
2022-11-22T03:41:31.449Z,96163.50
2022-11-22T03:44:00.012Z,96155.31
2022-11-22T03:46:30.182Z,96155.53
2022-11-22T03:49:00.024Z,96154.94
2022-11-22T03:51:29.418Z,96159.78
2022-11-22T03:53:59.672Z,96150.97
2022-11-22T03:56:30.601Z,96151.59
2022-11-22T03:58:59.767Z,96156.22
2022-11-22T04:01:29.475Z,96150.44
2022-11-22T04:03:59.628Z,96148.06
2022-11-22T04:06:29.787Z,96142.50
2022-11-22T04:08:58.958Z,96138.72
2022-11-22T04:11:27.506Z,96137.53
2022-11-22T04:14:16.927Z,96142.94
2022-11-22T04:16:46.398Z,96141.00
2022-11-22T04:19:15.402Z,96142.00
2022-11-22T04:21:42.846Z,96143.59
2022-11-22T04:24:31.075Z,96150.16
2022-11-22T04:27:01.423Z,96139.56
2022-11-22T04:29:33.291Z,96149.97
2022-11-22T04:32:20.530Z,96148.94
2022-11-22T04:34:50.834Z,96150.72
2022-11-22T04:37:20.713Z,96155.53
2022-11-22T04:39:50.567Z,96167.13
2022-11-22T04:42:38.139Z,96162.94
2022-11-22T04:45:11.985Z,96168.16
2022-11-22T04:48:00.680Z,96172.75
2022-11-22T04:50:48.671Z,96181.13
2022-11-22T04:53:20.701Z,96184.50
2022-11-22T04:55:50.421Z,96185.09
2022-11-22T04:58:20.461Z,96185.09
2022-11-22T05:00:51.284Z,96174.91
2022-11-22T05:03:21.390Z,96177.09
2022-11-22T05:05:50.597Z,96184.31
2022-11-22T05:08:21.040Z,96183.50
2022-11-22T05:11:00.094Z,96187.72
2022-11-22T05:13:32.963Z,96183.72
2022-11-22T05:16:06.843Z,96190.91
2022-11-22T05:18:36.473Z,96189.31
2022-11-22T05:21:07.936Z,96187.53
2022-11-22T05:23:54.664Z,96196.13
2022-11-22T05:26:24.620Z,96185.72
2022-11-22T05:28:54.008Z,96191.91
2022-11-22T05:31:28.982Z,96191.91
2022-11-22T05:33:59.458Z,96187.53
2022-11-22T05:36:29.263Z,96195.13
2022-11-22T05:38:59.420Z,96205.13
2022-11-22T05:41:29.646Z,96205.56
2022-11-22T05:43:59.892Z,96206.34
2022-11-22T05:46:32.491Z,96204.75
2022-11-22T05:49:02.216Z,96212.91
2022-11-22T05:51:34.658Z,96209.53
2022-11-22T05:54:05.885Z,96210.31
2022-11-22T05:56:34.972Z,96221.94
2022-11-22T05:59:06.064Z,96226.75
2022-11-22T06:01:37.158Z,96227.75
2022-11-22T06:04:08.489Z,96222.75
2022-11-22T06:06:38.753Z,96222.78
2022-11-22T06:09:08.163Z,96226.19
2022-11-22T06:11:38.702Z,96226.56
2022-11-22T06:14:12.468Z,96232.38
2022-11-22T06:16:44.465Z,96226.38
2022-11-22T06:19:14.757Z,96226.38
2022-11-22T06:21:44.530Z,96224.34
2022-11-22T06:24:14.524Z,96224.34
2022-11-22T06:26:45.068Z,96229.53
2022-11-22T06:29:15.054Z,96231.34
2022-11-22T06:31:46.378Z,96235.56
2022-11-22T06:34:15.551Z,96245.16
2022-11-22T06:36:44.542Z,96248.97
2022-11-22T06:39:15.680Z,96243.97
2022-11-22T06:41:45.235Z,96254.16
2022-11-22T06:44:16.695Z,96256.16
2022-11-22T06:46:47.623Z,96253.97
2022-11-22T06:49:16.743Z,96264.38
2022-11-22T06:51:46.184Z,96262.75
2022-11-22T06:54:16.673Z,96260.16
2022-11-22T06:56:46.986Z,96259.13
2022-11-22T06:59:17.702Z,96257.94
2022-11-22T07:01:49.258Z,96257.94
2022-11-22T07:04:19.206Z,96254.34
2022-11-22T07:06:50.331Z,96260.75
2022-11-22T07:09:19.438Z,96259.94
2022-11-22T07:11:49.006Z,96271.94
2022-11-22T07:14:18.992Z,96275.53
2022-11-22T07:16:50.861Z,96270.34
2022-11-22T07:19:20.032Z,96266.16
2022-11-22T07:21:50.888Z,96265.16
2022-11-22T07:24:20.420Z,96263.16
2022-11-22T07:26:49.450Z,96270.56
2022-11-22T07:29:19.428Z,96254.41
2022-11-22T07:31:49.688Z,96259.16
2022-11-22T07:34:19.211Z,96259.97
2022-11-22T07:36:54.368Z,96272.16
2022-11-22T07:39:26.965Z,96277.16
2022-11-22T07:41:57.102Z,96268.56
2022-11-22T07:44:27.421Z,96269.94
2022-11-22T07:46:58.402Z,96280.34
2022-11-22T07:49:28.664Z,96276.53
2022-11-22T07:51:59.596Z,96289.34
2022-11-22T07:54:29.525Z,96301.31
2022-11-22T07:56:58.548Z,96295.13
2022-11-22T07:59:28.423Z,96295.13
2022-11-22T08:01:59.694Z,96301.91
2022-11-22T08:04:28.190Z,96301.50
2022-11-22T08:06:57.293Z,96305.47
2022-11-22T08:09:26.422Z,96308.28
2022-11-22T08:11:56.710Z,96309.91
2022-11-22T08:14:27.054Z,96322.28
2022-11-22T08:16:56.590Z,96321.44
2022-11-22T08:19:28.596Z,96318.69
2022-11-22T08:21:58.799Z,96310.09
2022-11-22T08:24:28.918Z,96313.06
2022-11-22T08:26:58.872Z,96309.06
2022-11-22T08:29:30.082Z,96312.25
2022-11-22T08:31:58.832Z,96310.66
2022-11-22T08:34:29.567Z,96312.63
2022-11-22T08:36:59.121Z,96316.59
2022-11-22T08:39:29.460Z,96316.41
2022-11-22T08:41:59.666Z,96316.59
2022-11-22T08:44:29.551Z,96314.81
2022-11-22T08:46:59.124Z,96318.41
2022-11-22T08:49:30.296Z,96311.59
2022-11-22T08:52:00.781Z,96318.19
2022-11-22T08:54:33.553Z,96317.75
2022-11-22T08:57:06.420Z,96316.19
2022-11-22T08:59:37.197Z,96318.56
2022-11-22T09:02:07.361Z,96323.56
2022-11-22T09:04:39.415Z,96320.75
2022-11-22T09:09:59.928Z,96314.78
2022-11-22T09:12:29.501Z,96314.41
2022-11-22T09:14:58.516Z,96314.78
2022-11-22T09:17:28.215Z,96319.97
2022-11-22T09:19:59.743Z,96321.97
2022-11-22T09:22:29.457Z,96319.59
2022-11-22T09:24:59.573Z,96330.56
2022-11-22T09:27:28.640Z,96328.53
2022-11-22T09:29:58.696Z,96321.34
2022-11-22T09:32:32.307Z,96317.75
2022-11-22T09:35:04.756Z,96316.56
2022-11-22T09:37:34.888Z,96319.56
2022-11-22T09:40:07.051Z,96318.91
2022-11-22T09:43:03.189Z,96304.50
2022-11-22T09:46:04.019Z,96313.09
2022-11-22T09:49:00.441Z,96303.66
2022-11-22T09:51:40.482Z,96308.88
2022-11-22T09:54:16.262Z,96296.06
2022-11-22T09:56:47.933Z,96298.47
2022-11-22T09:59:24.078Z,96305.66
2022-11-22T10:02:17.727Z,96293.88
2022-11-22T10:04:53.285Z,96300.88
2022-11-22T10:07:32.762Z,96300.50
2022-11-22T10:10:09.024Z,96296.25
2022-11-22T10:12:46.853Z,96290.66
2022-11-22T10:15:31.032Z,96294.03
2022-11-22T10:18:05.725Z,96293.03
2022-11-22T10:20:45.719Z,96292.59
2022-11-22T10:23:23.760Z,96286.00
2022-11-22T10:25:59.831Z,96282.78
2022-11-22T10:28:36.380Z,96287.16
2022-11-22T10:31:17.890Z,96273.22
2022-11-22T10:34:01.855Z,96268.22
2022-11-22T10:36:43.768Z,96277.25
2022-11-22T10:39:38.789Z,96273.63
2022-11-22T10:42:35.772Z,96277.63
2022-11-22T10:45:18.763Z,96277.66
2022-11-22T10:48:01.920Z,96268.25
2022-11-22T10:50:47.928Z,96266.47
2022-11-22T10:53:31.925Z,96262.44
2022-11-22T10:56:15.202Z,96265.19
2022-11-22T10:59:11.051Z,96254.22
2022-11-22T11:01:50.636Z,96257.19
2022-11-22T11:04:21.391Z,96244.56
2022-11-22T11:07:12.199Z,96255.53
2022-11-22T11:12:47.962Z,96249.97
2022-11-22T11:15:24.567Z,96248.97
2022-11-22T11:18:02.333Z,96252.38
2022-11-22T11:20:38.029Z,96245.16
2022-11-22T11:23:14.727Z,96247.31
2022-11-22T11:25:46.922Z,96241.13
2022-11-22T11:28:24.048Z,96238.09
2022-11-22T11:30:56.611Z,96232.72
2022-11-22T11:33:32.102Z,96233.31
2022-11-22T11:36:08.276Z,96233.47
2022-11-22T11:38:50.002Z,96234.63
2022-11-22T11:41:27.806Z,96238.28
2022-11-22T11:44:01.296Z,96239.28
2022-11-22T11:46:46.315Z,96238.28
2022-11-22T11:49:18.117Z,96244.25
2022-11-22T11:51:49.441Z,96248.25
2022-11-22T11:54:22.585Z,96245.84
2022-11-22T11:56:54.432Z,96245.84
2022-11-22T11:59:32.163Z,96241.00
2022-11-22T12:02:10.705Z,96243.63
2022-11-22T12:04:53.254Z,96233.00
2022-11-22T12:07:27.170Z,96237.56
2022-11-22T12:09:57.258Z,96236.13
2022-11-22T12:12:45.140Z,96238.72
2022-11-22T12:15:27.244Z,96242.94
2022-11-22T12:18:08.521Z,96245.31
2022-11-22T12:20:52.219Z,96251.09
2022-11-22T12:23:36.201Z,96245.66
2022-11-22T12:26:06.062Z,96252.91
2022-11-22T12:28:36.654Z,96246.53
2022-11-22T12:31:19.880Z,96242.50
2022-11-22T12:33:56.371Z,96242.06
2022-11-22T12:36:33.751Z,96243.44
2022-11-22T12:39:07.306Z,96248.66
2022-11-22T12:41:38.399Z,96262.03
2022-11-22T12:44:17.324Z,96251.84
2022-11-22T12:46:52.990Z,96262.03
2022-11-22T12:49:34.046Z,96255.19
2022-11-22T12:52:18.229Z,96257.00
2022-11-22T12:55:01.977Z,96255.38
2022-11-22T12:57:54.269Z,96262.00
2022-11-22T13:00:29.781Z,96261.56
2022-11-22T13:03:06.777Z,96254.56
2022-11-22T13:05:44.802Z,96262.75
2022-11-22T13:08:25.572Z,96262.56
2022-11-22T13:11:05.161Z,96257.50
2022-11-22T13:13:39.033Z,96249.13
2022-11-22T13:16:13.098Z,96259.53
2022-11-22T13:18:49.441Z,96248.69
2022-11-22T13:21:32.138Z,96252.53
2022-11-22T13:24:37.135Z,96250.72
2022-11-22T13:27:19.764Z,96250.50
2022-11-22T13:29:55.212Z,96251.72
2022-11-22T13:32:32.054Z,96252.09
2022-11-22T13:35:21.156Z,96247.44
2022-11-22T13:37:55.882Z,96248.31
2022-11-22T13:40:31.107Z,96247.44
2022-11-22T13:43:51.414Z,96245.88
2022-11-22T13:47:02.464Z,96250.06
2022-11-22T13:49:48.288Z,96247.88
2022-11-22T13:52:54.497Z,96253.53
2022-11-22T13:55:42.409Z,96248.91
2022-11-22T13:58:52.319Z,96254.31
2022-11-22T14:02:00.055Z,96251.94
2022-11-22T14:04:56.599Z,96246.50
2022-11-22T14:07:37.903Z,96254.69
2022-11-22T14:10:34.129Z,96250.06
2022-11-22T14:13:36.006Z,96249.50
2022-11-22T14:16:24.222Z,96252.53
2022-11-22T14:19:07.585Z,96251.72
2022-11-22T14:22:02.325Z,96257.56
2022-11-22T14:24:52.721Z,96252.59
2022-11-22T14:27:40.056Z,96249.56
2022-11-22T14:30:22.829Z,96238.94
2022-11-22T14:33:04.047Z,96239.50
2022-11-22T14:35:38.430Z,96242.13
2022-11-22T14:38:33.142Z,96248.69
2022-11-22T14:41:54.036Z,96247.09
2022-11-22T14:44:35.324Z,96253.94
2022-11-22T14:47:14.848Z,96253.94
2022-11-22T14:49:49.063Z,96251.63
2022-11-22T14:52:24.429Z,96258.78
2022-11-22T14:54:59.414Z,96257.78
2022-11-22T14:57:34.504Z,96264.38
2022-11-22T15:00:20.394Z,96258.34
2022-11-22T15:03:38.386Z,96265.59
2022-11-22T15:09:10.678Z,96269.00
2022-11-22T15:10:02.169Z,96266.03
2022-11-22T15:13:10.256Z,96262.81
2022-11-22T15:57:37.872Z,96311.69
2022-11-22T16:00:21.813Z,96308.72
2022-11-22T16:02:56.531Z,96318.13
2022-11-22T16:06:05.785Z,96323.31
2022-11-22T16:08:26.610Z,96328.53
2022-11-22T16:11:00.366Z,96334.28
2022-11-22T16:13:34.728Z,96340.06
2022-11-22T16:16:24.095Z,96340.06
2022-11-22T16:18:54.687Z,96345.06
2022-11-22T16:21:30.394Z,96347.47
2022-11-22T16:24:18.778Z,96338.66
2022-11-22T16:26:59.511Z,96350.66
2022-11-22T16:29:33.287Z,96352.25
2022-11-22T16:32:06.629Z,96355.84
2022-11-22T16:34:35.700Z,96355.84
2022-11-22T16:37:36.357Z,96357.28
2022-11-22T16:40:11.911Z,96354.47
2022-11-22T16:42:42.398Z,96360.50
2022-11-22T16:45:19.109Z,96358.66
2022-11-22T16:47:58.622Z,96356.84
2022-11-22T16:50:41.115Z,96359.47
2022-11-22T16:53:15.277Z,96352.69
2022-11-22T16:55:45.350Z,96355.28
2022-11-22T16:58:19.091Z,96358.66
2022-11-22T17:00:50.522Z,96347.47
2022-11-22T17:03:23.654Z,96366.47
2022-11-22T17:05:53.426Z,96364.91
2022-11-22T17:08:24.675Z,96367.28
2022-11-22T17:10:54.160Z,96368.88
2022-11-22T17:13:27.771Z,96372.09
2022-11-22T17:15:58.535Z,96367.69
2022-11-22T17:18:28.027Z,96368.69
2022-11-22T17:20:57.868Z,96378.09
2022-11-22T17:23:33.963Z,96380.69
2022-11-22T17:26:04.092Z,96384.91
2022-11-22T17:28:34.319Z,96386.13
2022-11-22T17:31:05.608Z,96393.72
2022-11-22T17:33:35.325Z,96393.72
2022-11-22T17:36:05.470Z,96398.09
2022-11-22T17:38:37.815Z,96399.91
2022-11-22T17:41:07.756Z,96399.34
2022-11-22T17:43:40.184Z,96405.13
2022-11-22T17:46:09.828Z,96409.75
2022-11-22T17:48:39.360Z,96410.75
2022-11-22T17:51:11.482Z,96424.56
2022-11-22T17:53:42.861Z,96431.56
2022-11-22T17:56:12.779Z,96431.78
2022-11-22T17:58:42.408Z,96440.16
2022-11-22T18:01:15.024Z,96441.75
2022-11-22T18:03:45.123Z,96447.78
2022-11-22T18:06:16.957Z,96446.53
2022-11-22T18:08:47.974Z,96448.16
2022-11-22T18:11:20.754Z,96458.75
2022-11-22T18:13:50.414Z,96459.56
2022-11-22T18:16:20.206Z,96456.97
2022-11-22T18:18:58.475Z,96460.34
2022-11-22T18:21:29.770Z,96455.16
2022-11-22T18:24:01.092Z,96457.75
2022-11-22T18:26:45.652Z,96456.16
2022-11-22T18:32:04.756Z,96454.94
2022-11-22T18:34:33.786Z,96452.13
2022-11-22T18:37:04.350Z,96457.13
2022-11-22T18:39:38.722Z,96457.13
2022-11-22T18:42:13.263Z,96465.16
2022-11-22T18:44:42.831Z,96465.16
2022-11-22T18:47:12.872Z,96454.53
2022-11-22T18:49:43.193Z,96464.72
2022-11-22T18:52:16.452Z,96467.31
2022-11-22T18:54:49.506Z,96466.75
2022-11-22T18:57:19.251Z,96472.16
2022-11-22T18:59:48.689Z,96466.75
2022-11-22T19:02:19.997Z,96476.13
2022-11-22T19:04:49.898Z,96476.13
2022-11-22T19:07:20.538Z,96470.91
2022-11-22T19:09:52.063Z,96482.94
2022-11-22T19:12:21.749Z,96485.53
2022-11-22T19:14:50.711Z,96489.75
2022-11-22T19:17:22.156Z,96490.75
2022-11-22T19:19:58.249Z,96489.75
2022-11-22T19:22:28.012Z,96496.16
2022-11-22T19:24:58.288Z,96495.38
2022-11-22T19:27:28.266Z,96495.94
2022-11-22T19:29:58.594Z,96487.34
2022-11-22T19:32:28.909Z,96487.34
2022-11-22T19:34:59.662Z,96492.53
2022-11-22T19:37:29.765Z,96491.75
2022-11-22T19:40:01.179Z,96487.34
2022-11-22T19:42:33.645Z,96484.97
2022-11-22T19:45:03.705Z,96488.13
2022-11-22T19:47:33.599Z,96490.16
2022-11-22T19:50:02.516Z,96495.38
2022-11-22T19:52:32.928Z,96486.53
2022-11-22T19:55:03.396Z,96495.16
2022-11-22T19:57:33.380Z,96495.94
2022-11-22T20:00:05.328Z,96502.94
2022-11-22T20:02:35.607Z,96503.75
2022-11-22T20:05:05.802Z,96504.75
2022-11-22T20:07:35.292Z,96509.75
2022-11-22T20:10:10.147Z,96511.56
2022-11-22T20:12:38.735Z,96514.16
2022-11-22T20:15:09.250Z,96513.97
2022-11-22T20:17:37.912Z,96519.97
2022-11-22T20:20:10.755Z,96519.38
2022-11-22T20:22:40.312Z,96522.78
2022-11-22T20:25:13.004Z,96527.16
2022-11-22T20:27:42.044Z,96522.97
2022-11-22T20:30:15.655Z,96526.59
2022-11-22T20:32:46.089Z,96525.56
2022-11-22T20:35:15.509Z,96519.38
2022-11-22T20:37:44.491Z,96529.19
2022-11-22T20:40:17.480Z,96524.00
2022-11-22T20:42:47.831Z,96521.97
2022-11-22T20:45:17.320Z,96529.78
2022-11-22T20:47:46.931Z,96519.38
2022-11-22T20:50:17.812Z,96529.78
2022-11-22T20:52:48.181Z,96524.56
2022-11-22T20:55:20.465Z,96531.38
2022-11-22T20:57:50.102Z,96540.19
2022-11-22T21:00:20.729Z,96545.38
2022-11-22T21:02:51.735Z,96543.41
2022-11-22T21:05:21.216Z,96545.38
2022-11-22T21:07:50.152Z,96554.81
2022-11-22T21:10:21.244Z,96551.19
2022-11-22T21:12:50.876Z,96544.81
2022-11-22T21:15:20.195Z,96548.00
2022-11-22T21:18:17.270Z,96545.81
2022-11-22T21:20:38.985Z,96550.44
2022-11-22T21:23:09.167Z,96558.81
2022-11-22T21:25:40.357Z,96549.22
2022-11-22T21:28:09.659Z,96558.00
2022-11-22T21:30:39.002Z,96560.63
2022-11-22T21:33:08.425Z,96555.41
2022-11-22T21:35:38.889Z,96563.22
2022-11-22T21:38:09.816Z,96563.81
2022-11-22T21:40:41.911Z,96556.22
2022-11-22T21:43:12.635Z,96554.59
2022-11-22T21:45:41.638Z,96558.81
2022-11-22T21:48:11.069Z,96554.59
2022-11-22T21:50:40.626Z,96560.63
2022-11-22T21:53:10.480Z,96560.63
2022-11-22T21:55:49.906Z,96553.81
2022-11-22T21:58:20.614Z,96560.84
2022-11-22T22:00:54.940Z,96564.44
2022-11-22T22:03:24.482Z,96568.66
2022-11-22T22:05:56.569Z,96575.41
2022-11-22T22:08:29.409Z,96566.63
2022-11-22T22:11:02.487Z,96569.41
2022-11-22T22:13:32.466Z,96571.25
2022-11-22T22:16:06.940Z,96566.63
2022-11-22T22:18:39.356Z,96573.84
2022-11-22T22:21:11.018Z,96575.66
2022-11-22T22:23:42.541Z,96575.84
2022-11-22T22:26:15.967Z,96572.25
2022-11-22T22:28:46.746Z,96569.41
2022-11-22T22:31:21.704Z,96567.03
2022-11-22T22:33:54.585Z,96570.63
2022-11-22T22:36:25.259Z,96570.63
2022-11-22T22:38:55.147Z,96573.25
2022-11-22T22:41:26.098Z,96576.25
2022-11-22T22:43:55.396Z,96572.66
2022-11-22T22:46:26.180Z,96577.44
2022-11-22T22:48:56.239Z,96583.44
2022-11-22T22:51:32.427Z,96585.84
2022-11-22T22:54:02.621Z,96583.22
2022-11-22T22:56:37.455Z,96583.44
2022-11-22T22:59:07.915Z,96582.66
2022-11-22T23:01:37.190Z,96587.84
2022-11-22T23:04:06.701Z,96587.25
2022-11-22T23:06:38.863Z,96583.22
2022-11-22T23:09:12.106Z,96587.84
2022-11-22T23:12:00.305Z,96589.47
2022-11-22T23:14:31.260Z,96591.25
2022-11-22T23:17:00.796Z,96588.44
2022-11-22T23:19:30.747Z,96585.84
2022-11-22T23:22:00.876Z,96585.03
2022-11-22T23:24:32.489Z,96584.25
2022-11-22T23:27:04.529Z,96586.63
2022-11-22T23:29:36.021Z,96584.63
2022-11-22T23:32:04.900Z,96591.44
2022-11-22T23:34:35.270Z,96598.25
2022-11-22T23:37:04.835Z,96587.84
2022-11-22T23:39:34.471Z,96597.03
2022-11-22T23:42:06.955Z,96591.03
2022-11-22T23:44:36.324Z,96589.03
2022-11-22T23:47:06.751Z,96599.47
2022-11-22T23:49:36.868Z,96594.25
2022-11-22T23:52:06.554Z,96598.84
2022-11-22T23:54:36.673Z,96601.03
2022-11-22T23:57:08.590Z,96599.22
2022-11-22T23:59:38.402Z,96596.44
